createdAt,value
2019-06-28T00:01:12.770Z,1.73
2019-06-28T00:04:20.642Z,1.90
2019-06-28T00:07:28.743Z,1.87
2019-06-28T00:10:36.866Z,1.87
2019-06-28T00:13:44.891Z,1.43
2019-06-28T00:16:52.638Z,1.90
2019-06-28T00:20:00.457Z,2.10
2019-06-28T00:23:08.121Z,1.87
2019-06-28T00:26:15.966Z,1.90
2019-06-28T00:29:24.163Z,1.90
2019-06-28T00:32:31.815Z,1.80
2019-06-28T00:35:39.480Z,2.27
2019-06-28T00:38:47.518Z,2.13
2019-06-28T00:41:55.273Z,2.30
2019-06-28T00:45:03.230Z,1.90
2019-06-28T00:48:12.564Z,2.17
2019-06-28T00:51:20.607Z,1.80
2019-06-28T00:54:28.368Z,1.97
2019-06-28T00:57:36.212Z,1.93
2019-06-28T01:00:44.043Z,1.70
2019-06-28T01:03:52.153Z,2.10
2019-06-28T01:07:01.290Z,2.47
2019-06-28T01:10:10.648Z,2.00
2019-06-28T01:13:18.638Z,2.30
2019-06-28T01:16:26.564Z,2.20
2019-06-28T01:19:34.242Z,2.10
2019-06-28T01:22:42.002Z,2.50
2019-06-28T01:25:49.800Z,2.20
2019-06-28T01:28:57.490Z,2.00
2019-06-28T01:32:05.853Z,1.93
2019-06-28T01:35:14.625Z,2.10
2019-06-28T01:38:22.365Z,2.27
2019-06-28T01:41:30.195Z,2.33
2019-06-28T01:44:38.041Z,2.47
2019-06-28T01:47:45.737Z,2.70
2019-06-28T01:50:53.454Z,2.47
2019-06-28T01:54:01.099Z,2.17
2019-06-28T01:57:09.270Z,2.00
2019-06-28T02:00:17.683Z,2.40
2019-06-28T02:03:25.422Z,2.47
2019-06-28T02:06:33.429Z,2.23
2019-06-28T02:09:41.292Z,2.10
2019-06-28T02:12:49.061Z,2.20
2019-06-28T02:15:56.808Z,2.70
2019-06-28T02:19:04.650Z,2.23
2019-06-28T02:22:14.330Z,2.20
2019-06-28T02:25:22.182Z,2.40
2019-06-28T02:28:30.320Z,2.77
2019-06-28T02:31:38.061Z,2.17
2019-06-28T02:34:47.202Z,2.50
2019-06-28T02:37:54.980Z,2.97
2019-06-28T02:41:02.702Z,2.33
2019-06-28T02:44:10.727Z,3.17
2019-06-28T02:47:18.745Z,2.57
2019-06-28T02:50:26.584Z,2.60
2019-06-28T02:53:34.329Z,3.03
2019-06-28T02:56:42.076Z,2.77
2019-06-28T02:59:49.903Z,3.03
2019-06-28T03:02:57.542Z,3.10
2019-06-28T03:06:05.465Z,2.50
2019-06-28T03:09:13.551Z,2.80
2019-06-28T03:12:28.054Z,2.60
2019-06-28T03:15:30.916Z,2.40
2019-06-28T03:18:38.668Z,2.97
2019-06-28T03:21:46.396Z,2.43
2019-06-28T03:24:54.151Z,2.37
2019-06-28T03:28:02.018Z,2.67
2019-06-28T03:31:09.798Z,2.30
2019-06-28T03:34:17.963Z,2.67
2019-06-28T03:37:25.892Z,2.50
2019-06-28T03:40:33.901Z,2.20
2019-06-28T03:43:41.675Z,2.67
2019-06-28T03:46:49.504Z,2.63
2019-06-28T03:49:57.251Z,2.50
2019-06-28T03:53:05.435Z,2.30
2019-06-28T03:56:13.234Z,2.60
2019-06-28T03:59:20.920Z,2.50
2019-06-28T04:02:28.586Z,2.57
2019-06-28T04:05:36.714Z,3.33
2019-06-28T04:08:44.467Z,2.50
2019-06-28T04:11:52.152Z,2.90
2019-06-28T04:14:59.890Z,2.70
2019-06-28T04:18:07.854Z,2.87
2019-06-28T04:21:15.601Z,2.93
2019-06-28T04:24:23.791Z,2.50
2019-06-28T04:27:31.491Z,3.00
2019-06-28T04:30:39.323Z,2.57
2019-06-28T04:33:47.026Z,2.70
2019-06-28T04:36:58.326Z,2.80
2019-06-28T04:40:05.401Z,3.00
2019-06-28T04:43:22.278Z,3.10
2019-06-28T04:46:22.890Z,3.57
2019-06-28T04:49:30.718Z,3.40
2019-06-28T04:52:38.564Z,2.87
2019-06-28T04:55:46.244Z,3.00
2019-06-28T04:58:54.033Z,3.40
2019-06-28T05:02:01.933Z,3.30
2019-06-28T05:05:10.245Z,3.30
2019-06-28T05:08:18.404Z,3.40
2019-06-28T05:11:26.425Z,3.10
2019-06-28T05:14:34.234Z,3.50
2019-06-28T05:17:41.892Z,3.60
2019-06-28T05:20:50.002Z,3.37
2019-06-28T05:23:58.538Z,3.53
2019-06-28T05:27:06.360Z,3.40
2019-06-28T05:30:14.423Z,3.23
2019-06-28T05:33:22.095Z,3.63
2019-06-28T05:36:30.505Z,3.60
2019-06-28T05:39:38.228Z,3.30
2019-06-28T05:42:46.435Z,3.07
2019-06-28T05:45:57.681Z,3.53
2019-06-28T05:49:04.889Z,2.97
2019-06-28T05:52:13.039Z,3.10
2019-06-28T05:55:21.235Z,2.13
2019-06-28T05:58:29.782Z,2.30
2019-06-28T06:01:37.625Z,2.13
2019-06-28T06:04:45.364Z,2.00
2019-06-28T06:07:53.095Z,2.20
2019-06-28T06:11:01.045Z,2.20
2019-06-28T06:14:11.419Z,2.43
2019-06-28T06:17:18.369Z,2.20
2019-06-28T06:20:26.139Z,2.20
2019-06-28T06:23:33.849Z,1.97
2019-06-28T06:26:42.756Z,2.40
2019-06-28T06:29:50.507Z,2.07
2019-06-28T06:32:58.626Z,2.23
2019-06-28T06:36:08.079Z,2.97
2019-06-28T06:39:16.317Z,2.30
2019-06-28T06:42:24.073Z,2.40
2019-06-28T06:45:31.892Z,2.17
2019-06-28T06:48:39.608Z,1.90
2019-06-28T06:51:47.721Z,1.90
2019-06-28T06:54:55.485Z,2.00
2019-06-28T06:58:03.263Z,2.37
2019-06-28T07:01:11.136Z,2.03
2019-06-28T07:04:19.115Z,2.23
2019-06-28T07:07:27.209Z,2.60
2019-06-28T07:10:35.434Z,2.60
2019-06-28T07:13:43.427Z,2.53
2019-06-28T07:16:51.370Z,2.07
2019-06-28T07:19:59.130Z,2.17
2019-06-28T07:23:06.880Z,1.83
2019-06-28T07:26:14.669Z,2.20
2019-06-28T07:29:22.413Z,2.00
2019-06-28T07:32:30.238Z,2.00
2019-06-28T07:35:38.145Z,1.90
2019-06-28T07:38:51.886Z,1.80
2019-06-28T07:41:55.420Z,1.97
2019-06-28T07:45:06.749Z,2.10
2019-06-28T07:48:13.448Z,1.90
2019-06-28T07:51:21.133Z,2.10
2019-06-28T07:54:29.331Z,2.00
2019-06-28T07:57:37.426Z,2.20
2019-06-28T08:00:45.692Z,2.03
2019-06-28T08:03:54.582Z,2.20
2019-06-28T08:07:03.153Z,2.00
2019-06-28T08:10:12.049Z,1.73
2019-06-28T08:13:19.962Z,2.10
2019-06-28T08:16:27.973Z,2.27
2019-06-28T08:19:35.861Z,1.80
2019-06-28T08:22:43.690Z,1.97
2019-06-28T08:25:51.492Z,1.97
2019-06-28T08:28:59.244Z,1.97
2019-06-28T08:32:07.026Z,1.90
2019-06-28T08:35:16.388Z,1.77
2019-06-28T08:38:24.171Z,1.97
2019-06-28T08:41:31.992Z,1.90
2019-06-28T08:44:39.952Z,2.90
2019-06-28T08:47:47.790Z,1.77
2019-06-28T08:50:56.180Z,4.33
2019-06-28T08:54:03.981Z,2.03
2019-06-28T08:57:11.818Z,1.90
2019-06-28T09:00:22.104Z,2.10
2019-06-28T09:03:34.230Z,1.77
2019-06-28T09:06:39.417Z,2.10
2019-06-28T09:09:47.322Z,2.10
2019-06-28T09:12:55.114Z,1.73
2019-06-28T09:16:02.953Z,2.10
2019-06-28T09:19:11.373Z,1.80
2019-06-28T09:22:19.456Z,1.70
2019-06-28T09:25:28.341Z,2.40
2019-06-28T09:28:36.490Z,1.83
2019-06-28T09:31:44.240Z,2.13
2019-06-28T09:34:51.991Z,2.50
2019-06-28T09:37:59.688Z,2.20
2019-06-28T09:41:07.438Z,1.90
2019-06-28T09:44:15.197Z,2.37
2019-06-28T09:47:23.375Z,1.90
2019-06-28T09:50:31.451Z,2.03
2019-06-28T09:53:40.569Z,1.73
2019-06-28T09:56:48.322Z,1.97
2019-06-28T09:59:56.389Z,2.20
2019-06-28T10:03:04.875Z,1.77
2019-06-28T10:06:12.634Z,2.27
2019-06-28T10:09:20.672Z,1.60
2019-06-28T10:12:28.735Z,2.67
2019-06-28T10:15:36.598Z,1.83
2019-06-28T10:18:44.425Z,1.83
2019-06-28T10:21:52.287Z,1.70
2019-06-28T10:25:00.219Z,2.13
2019-06-28T10:28:08.406Z,3.27
2019-06-28T10:31:16.425Z,2.00
2019-06-28T10:34:24.284Z,1.90
2019-06-28T10:37:35.443Z,2.00
2019-06-28T10:40:41.897Z,2.10
2019-06-28T10:43:49.799Z,1.77
2019-06-28T10:46:57.672Z,2.20
2019-06-28T10:50:06.219Z,2.00
2019-06-28T10:53:14.192Z,2.03
2019-06-28T10:56:27.209Z,1.83
2019-06-28T10:59:31.741Z,1.90
2019-06-28T11:02:40.782Z,1.80
2019-06-28T11:05:49.417Z,1.83
2019-06-28T11:08:58.412Z,1.80
2019-06-28T11:12:06.171Z,2.00
2019-06-28T11:15:14.119Z,1.87
2019-06-28T11:18:24.721Z,1.73
2019-06-28T11:21:37.874Z,1.80
2019-06-28T11:24:47.330Z,1.50
2019-06-28T11:28:19.635Z,1.40
2019-06-28T11:31:27.642Z,2.00
2019-06-28T11:34:35.741Z,1.80
2019-06-28T11:37:43.558Z,1.80
2019-06-28T11:40:51.472Z,1.60
2019-06-28T11:43:59.574Z,1.47
2019-06-28T11:47:15.469Z,1.57
2019-06-28T11:50:18.470Z,1.70
2019-06-28T11:53:26.259Z,1.77
2019-06-28T11:56:34.243Z,1.40
2019-06-28T11:59:42.006Z,1.77
2019-06-28T12:02:50.058Z,1.73
2019-06-28T12:05:58.213Z,1.80
2019-06-28T12:09:07.412Z,1.50
2019-06-28T12:12:15.340Z,1.83
2019-06-28T12:15:23.231Z,1.63
2019-06-28T12:18:30.998Z,1.80
2019-06-28T12:21:38.688Z,1.80
2019-06-28T12:24:46.432Z,1.77
2019-06-28T12:27:54.198Z,1.93
2019-06-28T12:31:01.900Z,2.00
2019-06-28T12:34:09.991Z,1.60
2019-06-28T12:37:17.744Z,1.87
2019-06-28T12:40:26.683Z,1.90
2019-06-28T12:43:34.474Z,1.73
2019-06-28T12:46:42.747Z,1.87
2019-06-28T12:49:50.550Z,1.80
2019-06-28T12:52:58.429Z,1.90
2019-06-28T12:56:07.595Z,1.70
2019-06-28T12:59:16.651Z,1.90
2019-06-28T13:02:24.484Z,1.70
2019-06-28T13:05:35.280Z,1.70
2019-06-28T13:08:43.028Z,1.90
2019-06-28T13:11:51.461Z,1.90
2019-06-28T13:14:59.357Z,1.73
2019-06-28T13:18:07.125Z,1.60
2019-06-28T13:21:14.954Z,1.63
2019-06-28T13:24:24.119Z,2.00
2019-06-28T13:27:33.976Z,1.93
2019-06-28T13:30:41.811Z,1.60
2019-06-28T13:33:49.681Z,1.60
2019-06-28T13:36:57.931Z,2.00
2019-06-28T13:40:06.645Z,1.70
2019-06-28T13:43:14.673Z,1.50
2019-06-28T13:46:22.839Z,1.70
2019-06-28T13:49:30.543Z,1.93
2019-06-28T13:52:39.445Z,1.60
2019-06-28T13:55:49.860Z,1.60
2019-06-28T13:58:58.321Z,1.80
2019-06-28T14:02:07.589Z,1.67
2019-06-28T14:05:16.046Z,1.50
2019-06-28T14:08:23.723Z,1.90
2019-06-28T14:11:31.844Z,1.90
2019-06-28T14:14:39.758Z,1.83
2019-06-28T14:17:47.835Z,1.97
2019-06-28T14:20:55.584Z,1.80
2019-06-28T14:24:05.037Z,1.70
2019-06-28T14:27:13.239Z,2.10
2019-06-28T14:30:21.451Z,1.60
2019-06-28T14:33:29.118Z,1.90
2019-06-28T14:36:37.633Z,1.87
2019-06-28T14:39:45.541Z,1.80
2019-06-28T14:42:53.462Z,2.00
2019-06-28T14:46:01.234Z,1.97
2019-06-28T14:49:09.671Z,1.67
2019-06-28T14:52:17.908Z,1.60
2019-06-28T14:55:25.728Z,1.80
2019-06-28T14:58:33.571Z,1.80
2019-06-28T15:01:41.528Z,1.50
2019-06-28T15:04:49.464Z,1.87
2019-06-28T15:07:57.401Z,1.87
2019-06-28T15:11:05.337Z,1.87
2019-06-28T15:14:13.157Z,2.20
2019-06-28T15:17:21.848Z,1.90
2019-06-28T15:20:29.723Z,1.40
2019-06-28T15:23:37.478Z,1.53
2019-06-28T15:26:45.235Z,2.03
2019-06-28T15:29:52.961Z,2.50
2019-06-28T15:33:00.694Z,1.83
2019-06-28T15:36:08.391Z,2.73
2019-06-28T15:39:16.204Z,1.87
2019-06-28T15:42:25.840Z,1.60
2019-06-28T15:45:33.688Z,1.77
2019-06-28T15:48:41.469Z,1.70
2019-06-28T15:51:49.522Z,1.57
2019-06-28T15:54:57.715Z,1.70
2019-06-28T15:58:05.825Z,1.80
2019-06-28T16:01:14.010Z,2.00
2019-06-28T16:04:22.383Z,1.70
2019-06-28T16:07:30.671Z,1.97
2019-06-28T16:10:38.578Z,1.93
2019-06-28T16:13:46.839Z,1.90
2019-06-28T16:16:54.818Z,1.63
2019-06-28T16:20:02.753Z,1.70
2019-06-28T16:23:10.966Z,1.40
2019-06-28T16:26:19.494Z,1.80
2019-06-28T16:29:27.208Z,1.77
2019-06-28T16:32:35.370Z,1.80
2019-06-28T16:35:44.923Z,2.03
2019-06-28T16:38:52.814Z,1.80
2019-06-28T16:42:00.671Z,2.00
2019-06-28T16:45:09.071Z,1.90
2019-06-28T16:48:16.986Z,1.90
2019-06-28T16:51:25.136Z,1.80
2019-06-28T16:54:32.901Z,2.03
2019-06-28T16:57:41.795Z,1.90
2019-06-28T17:00:49.652Z,1.93
2019-06-28T17:03:57.521Z,1.93
2019-06-28T17:07:05.391Z,1.70
2019-06-28T17:10:13.929Z,2.00
2019-06-28T17:13:21.639Z,2.00
2019-06-28T17:16:29.648Z,1.67
2019-06-28T17:19:37.817Z,1.70
2019-06-28T17:22:46.102Z,2.00
2019-06-28T17:25:53.888Z,2.07
2019-06-28T17:29:01.747Z,2.00
2019-06-28T17:32:09.799Z,1.60
2019-06-28T17:35:19.777Z,1.90
2019-06-28T17:38:28.577Z,1.73
2019-06-28T17:41:36.693Z,2.40
2019-06-28T17:44:44.748Z,2.20
2019-06-28T17:47:52.783Z,2.10
2019-06-28T17:51:00.633Z,1.80
2019-06-28T17:54:08.492Z,2.03
2019-06-28T17:57:16.419Z,1.80
2019-06-28T18:00:25.819Z,1.90
2019-06-28T18:03:34.441Z,2.20
2019-06-28T18:06:42.372Z,2.03
2019-06-28T18:09:50.531Z,2.17
2019-06-28T18:12:59.381Z,2.27
2019-06-28T18:16:07.285Z,2.20
2019-06-28T18:19:15.906Z,2.20
2019-06-28T18:22:23.723Z,2.40
2019-06-28T18:25:32.207Z,3.03
2019-06-28T18:28:39.972Z,2.50
2019-06-28T18:31:47.860Z,2.10
2019-06-28T18:34:55.598Z,2.63
2019-06-28T18:38:04.755Z,2.10
2019-06-28T18:41:12.532Z,2.40
2019-06-28T18:44:20.278Z,2.40
2019-06-28T18:47:30.420Z,2.43
2019-06-28T18:50:40.395Z,2.10
2019-06-28T18:53:48.619Z,2.20
2019-06-28T18:57:08.644Z,2.37
2019-06-28T19:00:17.036Z,2.37
2019-06-28T19:03:24.726Z,2.20
2019-06-28T19:06:32.562Z,2.30
2019-06-28T19:09:40.420Z,2.90
2019-06-28T19:12:48.490Z,2.60
2019-06-28T19:15:56.843Z,2.03
2019-06-28T19:19:04.952Z,2.37
2019-06-28T19:22:12.744Z,2.30
2019-06-28T19:25:20.847Z,2.10
2019-06-28T19:28:28.622Z,2.17
2019-06-28T19:31:36.829Z,2.23
2019-06-28T19:34:45.733Z,2.43
2019-06-28T19:37:54.231Z,2.30
2019-06-28T19:41:02.307Z,2.43
2019-06-28T19:44:10.232Z,2.50
2019-06-28T19:47:19.206Z,3.23
2019-06-28T19:50:27.080Z,3.10
2019-06-28T19:53:34.885Z,3.00
2019-06-28T19:56:43.123Z,2.90
2019-06-28T19:59:51.402Z,3.70
2019-06-28T20:02:59.552Z,3.10
2019-06-28T20:06:07.855Z,3.17
2019-06-28T20:09:15.687Z,2.70
2019-06-28T20:12:24.536Z,3.57
2019-06-28T20:15:32.901Z,3.13
2019-06-28T20:18:55.962Z,3.00
2019-06-28T20:22:03.765Z,3.00
2019-06-28T20:25:12.040Z,3.30
2019-06-28T20:28:20.014Z,3.47
2019-06-28T20:31:28.139Z,3.40
2019-06-28T20:34:36.215Z,3.57
2019-06-28T20:37:44.273Z,3.50
2019-06-28T20:40:52.199Z,3.47
2019-06-28T20:43:59.881Z,3.40
2019-06-28T20:47:07.907Z,3.30
2019-06-28T20:50:19.351Z,3.30
2019-06-28T20:53:26.487Z,3.80
2019-06-28T20:56:34.836Z,3.23
2019-06-28T20:59:43.943Z,3.70
2019-06-28T21:02:52.035Z,3.50
2019-06-28T21:06:00.209Z,3.43
2019-06-28T21:09:08.082Z,3.23
2019-06-28T21:12:15.857Z,3.20
2019-06-28T21:15:23.872Z,3.60
2019-06-28T21:18:31.729Z,2.70
2019-06-28T21:21:39.848Z,3.50
2019-06-28T21:24:47.563Z,2.97
2019-06-28T21:27:55.350Z,3.30
2019-06-28T21:31:03.195Z,3.20
2019-06-28T21:34:10.965Z,3.63
2019-06-28T21:37:18.864Z,3.70
2019-06-28T21:40:26.821Z,4.10
2019-06-28T21:43:34.624Z,3.50
2019-06-28T21:46:42.683Z,2.70
2019-06-28T21:49:50.486Z,2.83
2019-06-28T21:52:58.234Z,2.80
2019-06-28T21:56:06.099Z,2.67
2019-06-28T21:59:14.209Z,2.67
2019-06-28T22:02:22.102Z,2.50
2019-06-28T22:05:30.062Z,3.00
2019-06-28T22:08:37.871Z,2.60
2019-06-28T22:11:45.646Z,3.80
2019-06-28T22:14:53.562Z,3.77
2019-06-28T22:18:01.330Z,3.57
2019-06-28T22:21:09.388Z,3.57
2019-06-28T22:24:17.404Z,3.23
2019-06-28T22:27:25.447Z,5.07
2019-06-28T22:30:33.586Z,3.10
2019-06-28T22:33:43.623Z,4.00
2019-06-28T22:36:51.577Z,4.13
2019-06-28T22:39:59.426Z,4.10
2019-06-28T22:43:07.389Z,4.37
2019-06-28T22:46:15.321Z,4.00
2019-06-28T22:49:23.078Z,4.03
2019-06-28T22:52:31.264Z,4.20
2019-06-28T22:55:39.469Z,4.13
2019-06-28T22:58:47.265Z,4.40
2019-06-28T23:01:58.503Z,3.07
2019-06-28T23:05:07.589Z,3.90
2019-06-28T23:08:15.547Z,3.50
2019-06-28T23:11:23.317Z,4.00
2019-06-28T23:14:31.639Z,3.80
2019-06-28T23:17:39.646Z,3.60
2019-06-28T23:20:47.393Z,3.90
2019-06-28T23:23:55.246Z,4.07
2019-06-28T23:27:03.267Z,4.47
2019-06-28T23:30:11.568Z,4.97
2019-06-28T23:33:19.819Z,4.10
2019-06-28T23:36:27.683Z,4.23
2019-06-28T23:39:35.644Z,3.50
2019-06-28T23:42:43.666Z,4.00
2019-06-28T23:45:51.512Z,3.57
2019-06-28T23:48:59.366Z,3.83
2019-06-28T23:52:07.348Z,3.83
2019-06-28T23:55:16.953Z,4.33
2019-06-28T23:58:25.225Z,4.50
